createdAt,value
2023-03-16T00:00:30.609Z,1.38
2023-03-16T00:01:30.666Z,1.34
2023-03-16T00:02:30.737Z,1.35
2023-03-16T00:03:30.934Z,1.32
2023-03-16T00:04:30.861Z,1.34
2023-03-16T00:05:30.916Z,1.32
2023-03-16T00:06:30.971Z,1.34
2023-03-16T00:07:31.035Z,1.31
2023-03-16T00:08:31.076Z,1.36
2023-03-16T00:09:31.360Z,1.31
2023-03-16T00:10:31.188Z,1.32
2023-03-16T00:11:31.266Z,1.33
2023-03-16T00:12:31.308Z,1.32
2023-03-16T00:13:31.341Z,1.32
2023-03-16T00:14:31.414Z,1.33
2023-03-16T00:15:31.441Z,1.29
2023-03-16T00:16:31.678Z,1.30
2023-03-16T00:17:31.582Z,1.32
2023-03-16T00:18:31.629Z,1.27
2023-03-16T00:19:31.661Z,1.28
2023-03-16T00:20:31.717Z,1.30
2023-03-16T00:21:31.771Z,1.30
2023-03-16T00:22:31.824Z,1.29
2023-03-16T00:23:31.875Z,1.26
2023-03-16T00:24:31.946Z,1.29
2023-03-16T00:25:31.986Z,1.30
2023-03-16T00:26:32.038Z,1.27
2023-03-16T00:27:32.097Z,1.29
2023-03-16T00:28:32.131Z,1.30
2023-03-16T00:29:32.194Z,1.28
2023-03-16T00:30:32.267Z,1.29
2023-03-16T00:31:32.381Z,1.29
2023-03-16T00:32:32.467Z,1.27
2023-03-16T00:33:32.448Z,1.28
2023-03-16T00:34:32.512Z,1.29
2023-03-16T00:35:32.635Z,1.26
2023-03-16T00:36:32.687Z,1.26
2023-03-16T00:37:32.873Z,1.25
2023-03-16T00:38:32.811Z,1.28
2023-03-16T00:39:32.856Z,1.26
2023-03-16T00:40:32.919Z,1.28
2023-03-16T00:41:32.968Z,1.24
2023-03-16T00:42:33.028Z,1.25
2023-03-16T00:43:33.085Z,1.27
2023-03-16T00:44:33.148Z,1.27
2023-03-16T00:45:33.227Z,1.26
2023-03-16T00:46:33.268Z,1.26
2023-03-16T00:47:33.300Z,1.25
2023-03-16T00:48:33.390Z,1.24
2023-03-16T00:49:33.446Z,1.24
2023-03-16T00:50:33.509Z,1.22
2023-03-16T00:51:33.600Z,1.25
2023-03-16T00:52:33.735Z,1.23
2023-03-16T00:53:33.711Z,1.24
2023-03-16T00:54:33.832Z,1.25
2023-03-16T00:55:33.827Z,1.23
2023-03-16T00:56:33.882Z,1.25
2023-03-16T00:57:33.933Z,1.24
2023-03-16T00:58:33.987Z,1.23
2023-03-16T00:59:34.039Z,1.23
2023-03-16T01:00:34.093Z,1.22
2023-03-16T01:01:34.240Z,1.20
2023-03-16T01:02:34.192Z,1.20
2023-03-16T01:03:34.294Z,1.26
2023-03-16T01:04:34.298Z,1.22
2023-03-16T01:05:34.364Z,1.22
2023-03-16T01:06:34.416Z,1.21
2023-03-16T01:07:34.493Z,1.20
2023-03-16T01:08:34.546Z,1.20
2023-03-16T01:09:34.600Z,1.22
2023-03-16T01:10:34.657Z,1.21
2023-03-16T01:11:34.721Z,1.22
2023-03-16T01:12:34.785Z,1.21
2023-03-16T01:13:34.846Z,1.20
2023-03-16T01:14:34.936Z,1.20
2023-03-16T01:15:34.991Z,1.23
2023-03-16T01:16:35.078Z,1.17
2023-03-16T01:17:35.200Z,1.19
2023-03-16T01:18:35.153Z,1.19
2023-03-16T01:19:35.203Z,1.21
2023-03-16T01:20:35.284Z,1.19
2023-03-16T01:21:35.357Z,1.18
2023-03-16T01:22:35.415Z,1.17
2023-03-16T01:23:35.464Z,1.19
2023-03-16T01:24:35.527Z,1.18
2023-03-16T01:25:35.585Z,1.18
2023-03-16T01:26:35.651Z,1.17
2023-03-16T01:27:35.738Z,1.19
2023-03-16T01:28:35.820Z,1.18
2023-03-16T01:29:35.904Z,1.18
2023-03-16T01:30:35.994Z,1.19
2023-03-16T01:31:35.992Z,1.19
2023-03-16T01:32:36.076Z,1.18
2023-03-16T01:33:36.121Z,1.17
2023-03-16T01:34:36.181Z,1.16
2023-03-16T01:35:36.322Z,1.17
2023-03-16T01:36:36.305Z,1.19
2023-03-16T01:37:36.371Z,1.16
2023-03-16T01:38:36.448Z,1.14
2023-03-16T01:39:36.516Z,1.15
2023-03-16T01:40:36.572Z,1.15
2023-03-16T01:41:36.645Z,1.16
2023-03-16T01:42:36.714Z,1.13
2023-03-16T01:43:36.767Z,1.15
2023-03-16T01:44:36.824Z,1.15
2023-03-16T01:45:36.933Z,1.13
2023-03-16T01:46:36.985Z,1.13
2023-03-16T01:47:36.977Z,1.11
2023-03-16T01:48:37.024Z,1.13
2023-03-16T01:49:37.080Z,1.11
2023-03-16T01:50:37.135Z,1.12
2023-03-16T01:51:37.201Z,1.14
2023-03-16T01:52:37.256Z,1.13
2023-03-16T01:53:37.304Z,1.12
2023-03-16T01:54:37.376Z,1.13
2023-03-16T01:55:37.421Z,1.12
2023-03-16T01:56:37.475Z,1.13
2023-03-16T01:57:37.541Z,1.13
2023-03-16T01:58:37.590Z,1.13
2023-03-16T01:59:37.650Z,1.12
2023-03-16T02:00:37.701Z,1.13
2023-03-16T02:01:37.788Z,1.13
2023-03-16T02:02:37.811Z,1.13
2023-03-16T02:03:37.873Z,1.12
2023-03-16T02:04:37.958Z,1.13
2023-03-16T02:05:37.971Z,1.14
2023-03-16T02:06:38.028Z,1.11
2023-03-16T02:07:38.083Z,1.13
2023-03-16T02:08:38.120Z,1.12
2023-03-16T02:09:38.195Z,1.11
2023-03-16T02:10:38.239Z,1.12
2023-03-16T02:11:38.303Z,1.14
2023-03-16T02:12:38.379Z,1.12
2023-03-16T02:13:38.428Z,1.10
2023-03-16T02:14:38.473Z,1.09
2023-03-16T02:15:38.577Z,1.09
2023-03-16T02:16:38.587Z,1.11
2023-03-16T02:17:38.640Z,1.10
2023-03-16T02:18:38.694Z,1.10
2023-03-16T02:19:38.753Z,1.11
2023-03-16T02:20:38.806Z,1.08
2023-03-16T02:21:39.532Z,1.08
2023-03-16T02:22:38.927Z,1.11
2023-03-16T02:23:38.986Z,1.10
2023-03-16T02:24:39.033Z,1.08
2023-03-16T02:25:39.091Z,1.09
2023-03-16T02:26:39.216Z,1.10
2023-03-16T02:27:39.205Z,1.09
2023-03-16T02:28:39.260Z,1.07
2023-03-16T02:29:39.308Z,1.08
2023-03-16T02:30:39.375Z,1.07
2023-03-16T02:31:39.402Z,1.08
2023-03-16T02:32:39.554Z,1.08
2023-03-16T02:33:39.518Z,1.07
2023-03-16T02:34:39.563Z,1.07
2023-03-16T02:35:39.638Z,1.09
2023-03-16T02:36:39.667Z,1.06
2023-03-16T02:37:39.726Z,1.07
2023-03-16T02:38:39.770Z,1.06
2023-03-16T02:39:39.841Z,1.06
2023-03-16T02:51:40.660Z,1.05
2023-03-16T02:52:40.722Z,1.04
2023-03-16T02:53:40.765Z,1.06
2023-03-16T02:54:40.822Z,1.05
2023-03-16T02:55:40.879Z,1.05
2023-03-16T02:56:40.942Z,1.06
2023-03-16T02:57:40.998Z,1.06
2023-03-16T02:58:41.059Z,1.05
2023-03-16T02:59:41.108Z,1.05
2023-03-16T03:00:41.158Z,1.04
2023-03-16T03:01:41.218Z,1.03
2023-03-16T03:02:41.271Z,1.04
2023-03-16T03:03:41.336Z,1.02
2023-03-16T03:04:41.403Z,1.03
2023-03-16T03:05:41.474Z,1.02
2023-03-16T03:06:41.522Z,1.02
2023-03-16T03:07:41.573Z,1.03
2023-03-16T03:08:41.627Z,1.01
2023-03-16T03:09:41.685Z,1.05
2023-03-16T03:10:41.739Z,1.03
2023-03-16T03:11:41.813Z,1.04
2023-03-16T03:12:41.870Z,1.05
2023-03-16T03:13:41.921Z,1.02
2023-03-16T03:14:42.004Z,1.03
2023-03-16T03:15:42.055Z,1.01
2023-03-16T03:16:42.128Z,1.01
2023-03-16T03:17:42.176Z,1.01
2023-03-16T03:18:42.222Z,1.03
2023-03-16T03:19:42.277Z,1.03
2023-03-16T03:20:42.332Z,1.02
2023-03-16T03:21:42.438Z,1.02
2023-03-16T03:22:42.473Z,1.02
2023-03-16T03:23:42.554Z,1.01
2023-03-16T03:24:42.590Z,1.01
2023-03-16T03:25:42.656Z,1.00
2023-03-16T03:26:42.711Z,1.00
2023-03-16T03:27:42.807Z,1.00
2023-03-16T03:28:42.845Z,1.00
2023-03-16T03:29:42.924Z,0.98
2023-03-16T03:30:42.955Z,0.99
2023-03-16T03:31:43.071Z,1.01
2023-03-16T03:32:43.118Z,1.00
2023-03-16T03:33:43.137Z,0.99
2023-03-16T03:34:43.188Z,1.00
2023-03-16T03:35:43.288Z,1.00
2023-03-16T03:36:43.335Z,1.00
2023-03-16T03:37:43.373Z,0.99
2023-03-16T03:38:43.443Z,0.99
2023-03-16T03:39:43.500Z,1.00
2023-03-16T03:40:43.565Z,0.99
2023-03-16T03:41:43.625Z,0.98
2023-03-16T03:42:43.701Z,1.00
2023-03-16T03:43:43.744Z,1.02
2023-03-16T03:44:43.803Z,0.99
2023-03-16T05:11:50.660Z,0.88
2023-03-16T05:12:50.752Z,0.88
2023-03-16T05:13:50.848Z,0.89
2023-03-16T05:14:50.954Z,0.89
2023-03-16T05:15:51.079Z,0.87
2023-03-16T05:16:51.166Z,0.86
2023-03-16T05:17:51.284Z,0.89
2023-03-16T05:18:51.397Z,0.89
2023-03-16T05:19:51.508Z,0.88
2023-03-16T05:20:51.633Z,0.88
2023-03-16T05:24:51.966Z,0.86
2023-03-16T05:25:52.078Z,0.88
2023-03-16T05:26:52.167Z,0.86
2023-03-16T05:27:52.281Z,0.88
2023-03-16T05:28:52.367Z,0.87
2023-03-16T05:29:52.459Z,0.88
2023-03-16T05:30:52.620Z,0.87
2023-03-16T05:31:52.660Z,0.88
2023-03-16T05:32:52.780Z,0.86
2023-03-16T05:33:52.886Z,0.87
2023-03-16T05:34:53.006Z,0.87
2023-03-16T05:35:53.131Z,0.85
2023-03-16T05:36:53.177Z,0.87
2023-03-16T05:37:53.267Z,0.86
2023-03-16T05:38:53.360Z,0.86
2023-03-16T05:39:53.475Z,0.85
2023-03-16T05:40:53.577Z,0.85
2023-03-16T05:41:53.677Z,0.85
2023-03-16T05:42:53.766Z,0.87
2023-03-16T05:43:53.875Z,0.86
2023-03-16T05:44:53.978Z,0.85
2023-03-16T05:45:54.092Z,0.84
2023-03-16T05:46:54.277Z,0.86
2023-03-16T05:47:54.277Z,0.85
2023-03-16T05:48:54.375Z,0.85
2023-03-16T05:49:54.487Z,0.83
2023-03-16T05:50:54.589Z,0.86
2023-03-16T05:51:54.687Z,0.86
2023-03-16T05:52:54.778Z,0.85
2023-03-16T05:53:54.868Z,0.85
2023-03-16T05:54:54.938Z,0.84
2023-03-16T05:55:55.020Z,0.84
2023-03-16T05:56:55.098Z,0.84
2023-03-16T05:57:55.187Z,0.84
2023-03-16T05:58:56.128Z,0.87
2023-03-16T05:59:55.369Z,0.85
2023-03-16T06:00:55.483Z,0.84
2023-03-16T06:01:55.583Z,0.85
2023-03-16T06:02:55.719Z,0.84
2023-03-16T06:03:55.836Z,0.85
2023-03-16T06:04:55.886Z,0.84
2023-03-16T06:05:55.968Z,0.85
2023-03-16T06:06:56.040Z,0.85
2023-03-16T06:07:56.127Z,0.82
2023-03-16T06:08:56.207Z,0.83
2023-03-16T06:09:56.283Z,0.84
2023-03-16T06:10:56.377Z,0.84
2023-03-16T06:11:56.469Z,0.84
2023-03-16T06:12:57.786Z,0.83
2023-03-16T06:13:56.652Z,0.82
2023-03-16T06:14:56.742Z,0.82
2023-03-16T06:15:56.875Z,0.81
2023-03-16T06:16:56.922Z,0.81
2023-03-16T06:17:57.020Z,0.83
2023-03-16T06:18:59.655Z,0.83
2023-03-16T06:19:57.140Z,0.83
2023-03-16T06:20:57.181Z,0.82
2023-03-16T06:21:57.250Z,0.83
2023-03-16T06:22:58.129Z,0.83
2023-03-16T06:23:57.311Z,0.84
2023-03-16T06:24:57.377Z,0.85
2023-03-16T06:25:57.392Z,0.85
2023-03-16T06:26:57.450Z,0.84
2023-03-16T06:27:57.471Z,0.87
2023-03-16T06:28:57.528Z,0.91
2023-03-16T06:29:57.556Z,0.92
2023-03-16T06:30:57.607Z,0.95
2023-03-16T06:31:57.683Z,0.96
2023-03-16T06:32:57.741Z,0.98
2023-03-16T06:33:57.722Z,0.98
2023-03-16T06:34:57.756Z,0.98
2023-03-16T06:35:57.866Z,0.98
2023-03-16T06:36:57.829Z,1.00
2023-03-16T06:37:57.887Z,1.01
2023-03-16T07:16:00.645Z,0.98
2023-03-16T07:31:04.057Z,1.12
2023-03-16T07:32:00.742Z,1.17
2023-03-16T07:33:00.754Z,1.22
2023-03-16T07:34:00.759Z,1.31
2023-03-16T07:35:00.802Z,1.36
2023-03-16T07:36:00.850Z,1.39
2023-03-16T07:37:00.860Z,1.45
2023-03-16T07:38:00.918Z,1.50
2023-03-16T07:39:00.922Z,1.59
2023-03-16T07:40:00.942Z,1.67
2023-03-16T07:41:01.005Z,1.71
2023-03-16T07:42:01.008Z,1.76
2023-03-16T07:43:01.053Z,1.78
2023-03-16T07:44:01.093Z,1.86
2023-03-16T07:45:01.127Z,1.87
2023-03-16T07:46:01.213Z,1.94
2023-03-16T07:47:01.183Z,1.99
2023-03-16T07:48:01.207Z,2.09
2023-03-16T07:49:01.240Z,2.14
2023-03-16T07:50:01.263Z,2.22
2023-03-16T07:51:01.303Z,2.27
2023-03-16T07:52:01.329Z,2.34
2023-03-16T07:53:01.364Z,2.37
2023-03-16T07:54:01.413Z,2.48
2023-03-16T07:55:01.427Z,2.54
2023-03-16T07:56:01.468Z,2.59
2023-03-16T07:57:01.492Z,2.60
2023-03-16T07:58:01.541Z,2.62
2023-03-16T07:59:01.562Z,2.71
2023-03-16T08:00:01.591Z,2.83
2023-03-16T08:01:01.624Z,3.06
2023-03-16T08:02:01.700Z,3.18
2023-03-16T08:03:01.672Z,3.25
2023-03-16T08:04:01.798Z,3.33
2023-03-16T08:05:01.733Z,3.42
2023-03-16T08:06:01.766Z,3.56
2023-03-16T08:07:01.852Z,3.68
2023-03-16T08:08:02.021Z,3.76
2023-03-16T08:09:02.036Z,3.86
2023-03-16T08:10:02.133Z,4.00
2023-03-16T08:11:02.192Z,4.09
2023-03-16T08:12:02.269Z,4.27
2023-03-16T08:13:02.419Z,4.42
2023-03-16T08:14:02.425Z,4.49
2023-03-16T08:15:02.508Z,4.63
2023-03-16T08:16:02.646Z,5.01
2023-03-16T08:17:03.181Z,4.94
2023-03-16T08:18:02.726Z,4.98
2023-03-16T08:19:02.783Z,5.05
2023-03-16T08:20:02.841Z,5.05
2023-03-16T08:21:02.916Z,5.25
2023-03-16T08:22:02.997Z,3.54
2023-03-16T08:23:03.082Z,1.60
2023-03-16T08:24:03.219Z,0.96
2023-03-16T08:25:03.203Z,0.61
2023-03-16T08:26:03.310Z,0.47
2023-03-16T08:27:03.392Z,0.41
2023-03-16T08:28:03.482Z,0.46
2023-03-16T08:29:03.625Z,0.50
2023-03-16T08:30:03.681Z,0.52
2023-03-16T08:31:03.801Z,0.53
2023-03-16T08:32:05.701Z,0.57
2023-03-16T08:33:03.979Z,0.61
2023-03-16T08:34:05.605Z,0.61
2023-03-16T08:35:04.609Z,0.63
2023-03-16T08:36:04.118Z,0.67
2023-03-16T08:37:04.085Z,0.79
2023-03-16T08:38:05.116Z,0.62
2023-03-16T08:39:07.290Z,0.66
2023-03-16T08:40:04.200Z,0.62
2023-03-16T08:41:04.223Z,0.67
2023-03-16T08:42:04.252Z,0.79
2023-03-16T08:43:04.306Z,1.00
2023-03-16T08:44:04.315Z,1.38
2023-03-16T08:45:04.392Z,1.53
2023-03-16T08:46:04.440Z,1.61
2023-03-16T08:47:04.408Z,1.75
2023-03-16T08:48:04.435Z,1.81
2023-03-16T08:49:04.466Z,1.91
2023-03-16T08:50:04.495Z,1.99
2023-03-16T08:51:04.528Z,2.07
2023-03-16T08:52:04.564Z,2.29
2023-03-16T08:53:04.605Z,2.33
2023-03-16T08:54:04.621Z,2.43
2023-03-16T08:55:04.650Z,2.57
2023-03-16T08:56:04.684Z,2.67
2023-03-16T08:57:04.712Z,2.77
2023-03-16T08:58:04.754Z,2.90
2023-03-16T08:59:04.794Z,2.98
2023-03-16T09:00:04.856Z,3.17
2023-03-16T09:01:04.833Z,3.30
2023-03-16T09:02:04.914Z,3.37
2023-03-16T09:03:04.901Z,3.55
2023-03-16T09:04:05.758Z,3.72
2023-03-16T09:05:04.976Z,3.88
2023-03-16T09:06:04.975Z,3.99
2023-03-16T09:07:09.328Z,4.17
2023-03-16T09:08:05.022Z,4.18
2023-03-16T09:09:05.040Z,4.22
2023-03-16T09:10:05.063Z,4.30
2023-03-16T09:11:05.101Z,4.49
2023-03-16T09:12:05.128Z,5.05
2023-03-16T09:13:05.700Z,5.95
2023-03-16T09:14:05.169Z,6.24
2023-03-16T09:15:05.194Z,5.89
2023-03-16T09:16:05.263Z,2.49
2023-03-16T09:17:05.252Z,1.72
2023-03-16T09:18:05.287Z,1.16
2023-03-16T09:19:05.315Z,0.63
2023-03-16T09:20:19.552Z,0.45
2023-03-16T09:21:06.415Z,0.36
2023-03-16T09:22:05.444Z,0.34
2023-03-16T09:23:05.488Z,0.34
2023-03-16T09:24:05.587Z,0.34
2023-03-16T09:25:05.571Z,0.34
2023-03-16T09:26:05.649Z,0.45
2023-03-16T09:27:06.240Z,0.56
2023-03-16T09:28:05.710Z,0.66
2023-03-16T09:29:05.740Z,0.74
2023-03-16T09:30:05.819Z,0.82
2023-03-16T09:31:05.952Z,0.82
2023-03-16T09:32:05.966Z,0.88
2023-03-16T09:33:06.069Z,0.96
2023-03-16T09:34:06.073Z,1.01
2023-03-16T09:35:06.152Z,1.09
2023-03-16T09:36:06.205Z,1.14
2023-03-16T09:37:06.229Z,1.23
2023-03-16T09:38:06.982Z,1.27
2023-03-16T09:39:06.315Z,1.31
2023-03-16T09:40:11.779Z,1.39
2023-03-16T09:41:07.400Z,1.39
2023-03-16T09:42:06.432Z,1.40
2023-03-16T09:43:06.458Z,1.45
2023-03-16T09:44:06.482Z,1.53
2023-03-16T09:45:06.512Z,1.73
2023-03-16T09:46:06.593Z,1.86
2023-03-16T09:47:06.573Z,1.89
2023-03-16T09:48:06.604Z,1.98
2023-03-16T09:49:06.637Z,2.02
2023-03-16T09:50:06.764Z,2.13
2023-03-16T09:51:06.920Z,2.14
2023-03-16T09:52:06.886Z,2.18
2023-03-16T09:53:06.966Z,2.32
2023-03-16T09:54:07.071Z,2.36
2023-03-16T09:55:07.162Z,2.43
2023-03-16T09:56:07.263Z,2.52
2023-03-16T09:57:07.357Z,2.63
2023-03-16T09:58:07.451Z,2.74
2023-03-16T09:59:07.639Z,2.92
2023-03-16T10:00:07.647Z,3.01
2023-03-16T10:01:07.808Z,3.15
2023-03-16T10:02:07.829Z,3.89
2023-03-16T10:03:07.914Z,5.85
2023-03-16T10:04:08.025Z,5.17
2023-03-16T10:05:08.111Z,4.69
2023-03-16T10:06:08.181Z,4.56
2023-03-16T10:07:08.265Z,4.55
2023-03-16T10:08:08.346Z,4.44
2023-03-16T10:09:08.435Z,4.45
2023-03-16T10:10:08.518Z,4.37
2023-03-16T10:11:08.724Z,4.38
2023-03-16T10:12:08.683Z,4.50
2023-03-16T10:13:08.775Z,4.32
2023-03-16T10:14:08.901Z,3.28
2023-03-16T10:15:09.018Z,2.54
2023-03-16T10:16:09.059Z,1.71
2023-03-16T10:17:09.105Z,1.45
2023-03-16T10:18:09.212Z,1.08
2023-03-16T10:19:09.270Z,0.88
2023-03-16T10:20:09.380Z,0.83
2023-03-16T10:21:09.419Z,0.77
2023-03-16T10:22:09.479Z,0.73
2023-03-16T10:23:09.538Z,0.68
2023-03-16T10:24:09.562Z,0.56
2023-03-16T10:25:09.633Z,0.50
2023-03-16T10:26:09.664Z,0.50
2023-03-16T10:27:09.711Z,0.50
2023-03-16T10:28:09.747Z,0.50
2023-03-16T10:29:09.791Z,0.55
2023-03-16T10:30:09.856Z,0.54
2023-03-16T10:31:09.925Z,0.61
2023-03-16T10:32:09.976Z,0.50
2023-03-16T10:33:10.407Z,0.48
2023-03-16T10:34:11.739Z,0.51
2023-03-16T10:35:10.171Z,0.51
2023-03-16T10:36:10.242Z,0.53
2023-03-16T10:37:10.276Z,0.52
2023-03-16T10:38:10.341Z,0.53
2023-03-16T10:39:10.421Z,0.50
2023-03-16T10:40:10.450Z,0.51
2023-03-16T10:41:10.498Z,0.53
2023-03-16T10:42:10.809Z,0.52
2023-03-16T10:43:10.605Z,0.50
2023-03-16T10:44:10.658Z,0.55
2023-03-16T10:45:10.715Z,0.50
2023-03-16T10:46:12.502Z,0.53
2023-03-16T10:47:10.966Z,0.50
2023-03-16T10:48:10.852Z,0.55
2023-03-16T10:49:10.891Z,0.50
2023-03-16T10:50:10.937Z,0.55
2023-03-16T10:51:10.966Z,0.55
2023-03-16T10:52:11.012Z,0.54
2023-03-16T10:53:11.052Z,0.54
2023-03-16T10:54:11.079Z,0.55
2023-03-16T10:55:11.131Z,0.50
2023-03-16T10:56:11.194Z,0.50
2023-03-16T10:57:11.206Z,0.69
2023-03-16T10:58:11.249Z,0.68
2023-03-16T10:59:11.293Z,0.92
2023-03-16T11:00:11.318Z,1.04
2023-03-16T11:01:12.264Z,1.13
2023-03-16T11:02:11.402Z,1.10
2023-03-16T11:03:11.443Z,1.37
2023-03-16T11:04:11.546Z,1.33
2023-03-16T11:05:11.514Z,1.34
2023-03-16T11:06:11.559Z,1.31
2023-03-16T11:07:11.603Z,0.92
2023-03-16T11:08:11.641Z,0.90
2023-03-16T11:09:11.704Z,1.31
2023-03-16T11:10:11.708Z,1.56
2023-03-16T11:11:11.746Z,1.80
2023-03-16T11:12:11.780Z,3.07
2023-03-16T11:13:11.814Z,4.54
2023-03-16T11:14:11.841Z,4.53
2023-03-16T11:15:20.125Z,5.76
2023-03-16T11:16:12.960Z,5.54
2023-03-16T11:17:11.944Z,4.01
2023-03-16T11:18:11.978Z,4.07
2023-03-16T11:19:12.010Z,5.55
2023-03-16T11:20:12.046Z,6.51
2023-03-16T11:21:12.082Z,7.87
2023-03-16T11:22:12.090Z,9.07
2023-03-16T11:23:12.126Z,10.66
2023-03-16T11:24:12.165Z,12.91
2023-03-16T11:25:12.192Z,14.57
2023-03-16T11:26:12.277Z,16.74
2023-03-16T11:27:12.376Z,17.44
2023-03-16T11:28:12.486Z,19.99
2023-03-16T11:29:12.551Z,20.36
2023-03-16T11:30:12.641Z,22.60
2023-03-16T11:31:12.786Z,23.48
2023-03-16T11:32:14.121Z,24.18
2023-03-16T11:33:12.914Z,24.60
2023-03-16T11:34:12.973Z,26.97
2023-03-16T11:35:13.048Z,28.05
2023-03-16T11:36:13.213Z,30.46
2023-03-16T11:37:13.253Z,31.97
2023-03-16T11:38:13.258Z,32.40
2023-03-16T11:39:13.330Z,34.24
2023-03-16T11:40:13.383Z,34.90
2023-03-16T11:41:13.450Z,35.78
2023-03-16T11:42:13.505Z,36.22
2023-03-16T11:43:13.565Z,36.75
2023-03-16T11:44:13.638Z,38.05
2023-03-16T11:45:13.702Z,37.62
2023-03-16T11:46:13.862Z,39.00
2023-03-16T11:47:15.774Z,38.97
2023-03-16T11:48:13.872Z,39.02
2023-03-16T11:49:13.930Z,39.47
2023-03-16T11:50:13.984Z,40.27
2023-03-16T11:51:14.030Z,39.46
2023-03-16T11:52:14.084Z,37.72
2023-03-16T11:53:14.129Z,36.05
2023-03-16T11:54:14.184Z,36.49
2023-03-16T11:55:14.221Z,37.14
2023-03-16T11:56:14.272Z,33.20
2023-03-16T11:57:14.340Z,35.11
2023-03-16T11:58:14.365Z,34.59
2023-03-16T11:59:14.424Z,33.92
2023-03-16T12:00:14.465Z,31.01
2023-03-16T12:01:14.508Z,30.75
2023-03-16T12:02:14.616Z,31.63
2023-03-16T12:03:14.637Z,32.44
2023-03-16T12:04:14.663Z,31.74
2023-03-16T12:05:14.686Z,28.30
2023-03-16T12:06:22.901Z,30.31
2023-03-16T12:07:15.743Z,30.38
2023-03-16T12:08:14.777Z,30.60
2023-03-16T12:09:14.808Z,31.37
2023-03-16T12:10:14.931Z,32.35
2023-03-16T12:11:14.861Z,33.89
2023-03-16T12:12:14.863Z,34.45
2023-03-16T12:13:14.898Z,34.88
2023-03-16T12:14:14.923Z,34.46
2023-03-16T12:15:14.949Z,34.94
2023-03-16T12:16:15.008Z,35.55
2023-03-16T12:17:15.007Z,35.31
2023-03-16T12:18:15.040Z,35.25
2023-03-16T12:19:15.064Z,34.64
2023-03-16T12:20:15.131Z,35.05
2023-03-16T12:21:15.164Z,35.09
2023-03-16T12:22:15.183Z,34.45
2023-03-16T12:23:15.264Z,34.00
2023-03-16T12:24:15.350Z,33.94
2023-03-16T12:25:15.432Z,34.29
2023-03-16T12:26:15.531Z,34.30
2023-03-16T12:27:16.283Z,33.80
2023-03-16T12:28:15.699Z,33.34
2023-03-16T12:29:15.788Z,33.38
2023-03-16T12:30:15.901Z,33.29
2023-03-16T12:31:15.997Z,33.42
2023-03-16T12:32:16.052Z,32.88
2023-03-16T12:33:16.150Z,32.97
2023-03-16T12:34:17.186Z,32.53
2023-03-16T12:35:16.308Z,32.43
2023-03-16T12:36:16.384Z,33.55
2023-03-16T12:37:16.491Z,28.69
2023-03-16T12:38:16.556Z,23.98
2023-03-16T12:39:16.638Z,22.91
2023-03-16T12:40:16.738Z,23.52
2023-03-16T12:41:18.076Z,26.21
2023-03-16T12:42:16.886Z,26.00
2023-03-16T12:43:16.951Z,25.88
2023-03-16T12:44:17.026Z,26.06
2023-03-16T12:45:17.111Z,26.20
2023-03-16T12:46:17.195Z,26.46
2023-03-16T12:47:17.220Z,26.38
2023-03-16T12:48:17.309Z,26.88
2023-03-16T12:49:17.356Z,26.93
2023-03-16T12:50:17.467Z,26.76
2023-03-16T12:51:17.516Z,26.60
2023-03-16T12:52:17.603Z,26.77
2023-03-16T12:53:17.671Z,26.01
2023-03-16T12:54:17.756Z,25.84
2023-03-16T12:55:17.822Z,25.70
2023-03-16T12:56:17.886Z,25.81
2023-03-16T12:57:17.963Z,25.51
2023-03-16T12:58:18.034Z,25.30
2023-03-16T12:59:18.116Z,25.05
2023-03-16T13:00:18.172Z,24.97
2023-03-16T13:01:18.279Z,24.68
2023-03-16T13:02:18.330Z,24.71
2023-03-16T13:03:18.521Z,24.68
2023-03-16T13:04:18.499Z,24.50
2023-03-16T13:05:18.548Z,24.71
2023-03-16T13:06:18.619Z,24.47
2023-03-16T13:07:18.691Z,24.25
2023-03-16T13:08:18.764Z,24.14
2023-03-16T13:09:18.811Z,24.14
2023-03-16T13:10:18.902Z,24.17
2023-03-16T13:11:19.790Z,23.90
2023-03-16T13:12:19.060Z,24.07
2023-03-16T13:13:19.125Z,24.04
2023-03-16T13:14:19.205Z,23.69
2023-03-16T13:15:19.281Z,23.40
2023-03-16T13:16:19.428Z,23.68
2023-03-16T13:17:19.470Z,23.42
2023-03-16T13:18:19.493Z,23.49
2023-03-16T13:19:19.555Z,23.58
2023-03-16T13:20:29.824Z,23.35
2023-03-16T13:21:20.657Z,23.37
2023-03-16T13:22:19.724Z,23.36
2023-03-16T13:23:19.735Z,23.36
2023-03-16T13:24:19.791Z,23.13
2023-03-16T13:25:19.807Z,23.35
2023-03-16T13:26:19.836Z,23.26
2023-03-16T13:27:19.876Z,23.08
2023-03-16T13:28:19.914Z,23.01
2023-03-16T13:29:19.949Z,22.68
2023-03-16T13:30:20.058Z,23.08
2023-03-16T13:31:20.055Z,22.28
2023-03-16T13:32:20.071Z,22.53
2023-03-16T13:33:20.112Z,22.06
2023-03-16T13:34:20.253Z,22.10
2023-03-16T13:35:20.195Z,21.78
2023-03-16T13:36:20.249Z,21.94
2023-03-16T13:37:20.311Z,21.51
2023-03-16T13:38:20.376Z,21.37
2023-03-16T13:39:20.421Z,21.61
2023-03-16T13:40:20.494Z,21.33
2023-03-16T13:41:20.526Z,21.16
2023-03-16T13:42:20.574Z,20.95
2023-03-16T13:43:20.611Z,21.17
2023-03-16T13:44:20.674Z,20.71
2023-03-16T13:45:20.722Z,20.42
2023-03-16T13:46:20.801Z,20.53
2023-03-16T13:47:20.795Z,20.45
2023-03-16T13:48:20.859Z,20.19
2023-03-16T13:49:20.893Z,20.29
2023-03-16T13:50:20.940Z,19.84
2023-03-16T13:51:21.048Z,20.18
2023-03-16T13:52:21.075Z,19.92
2023-03-16T13:53:21.129Z,19.77
2023-03-16T13:54:21.160Z,19.86
2023-03-16T13:55:21.289Z,19.93
2023-03-16T13:56:21.277Z,19.95
2023-03-16T13:57:21.331Z,19.52
2023-03-16T13:58:21.407Z,19.21
2023-03-16T13:59:21.457Z,19.35
2023-03-16T14:00:21.509Z,19.49
2023-03-16T14:01:21.601Z,19.51
2023-03-16T14:02:21.753Z,19.50
2023-03-16T14:03:21.733Z,19.16
2023-03-16T14:04:21.817Z,18.78
2023-03-16T14:05:21.870Z,18.91
2023-03-16T14:06:21.924Z,18.65
2023-03-16T14:07:21.973Z,18.97
2023-03-16T14:08:22.047Z,18.42
2023-03-16T14:09:22.100Z,18.55
2023-03-16T14:10:22.160Z,18.69
2023-03-16T14:11:22.184Z,18.67
2023-03-16T14:12:22.221Z,18.41
2023-03-16T14:13:22.283Z,18.08
2023-03-16T14:14:22.328Z,18.11
2023-03-16T14:15:22.391Z,18.06
2023-03-16T14:16:22.510Z,17.97
2023-03-16T14:17:22.472Z,17.91
2023-03-16T14:18:22.505Z,17.67
2023-03-16T14:19:22.551Z,17.91
2023-03-16T14:20:22.591Z,17.63
2023-03-16T14:21:22.635Z,17.38
2023-03-16T14:22:22.726Z,17.40
2023-03-16T14:23:22.749Z,17.51
2023-03-16T14:24:22.811Z,17.10
2023-03-16T14:25:22.851Z,17.27
2023-03-16T14:26:22.888Z,17.15
2023-03-16T14:27:22.932Z,17.12
2023-03-16T14:28:22.998Z,17.21
2023-03-16T14:29:23.033Z,16.95
2023-03-16T14:30:23.087Z,16.76
2023-03-16T14:31:23.186Z,16.73
2023-03-16T14:32:23.191Z,16.84
2023-03-16T14:33:23.253Z,16.67
2023-03-16T14:34:23.299Z,16.69
2023-03-16T14:35:23.348Z,16.68
2023-03-16T14:36:23.387Z,16.44
2023-03-16T14:37:23.426Z,16.38
2023-03-16T14:38:23.508Z,16.15
2023-03-16T14:39:23.557Z,16.10
2023-03-16T14:40:23.629Z,16.19
2023-03-16T14:41:23.680Z,16.01
2023-03-16T14:42:23.720Z,15.75
2023-03-16T14:43:23.760Z,15.75
2023-03-16T14:44:23.802Z,15.86
2023-03-16T14:45:23.849Z,15.70
2023-03-16T14:46:23.921Z,15.50
2023-03-16T14:47:23.942Z,15.48
2023-03-16T14:48:23.973Z,15.61
2023-03-16T14:49:24.027Z,15.36
2023-03-16T15:04:24.800Z,14.33
2023-03-16T16:48:30.642Z,9.87
2023-03-16T16:49:30.880Z,9.85
2023-03-16T16:50:30.776Z,9.91
2023-03-16T16:51:30.857Z,9.78
2023-03-16T16:52:30.914Z,9.77
2023-03-16T16:53:30.966Z,9.73
2023-03-16T16:54:31.073Z,9.99
2023-03-16T16:55:31.336Z,9.71
2023-03-16T16:56:31.154Z,9.82
2023-03-16T16:57:31.222Z,9.50
2023-03-16T16:58:31.290Z,9.38
2023-03-16T16:59:31.387Z,9.68
2023-03-16T17:00:31.445Z,9.55
2023-03-16T17:01:31.602Z,9.55
2023-03-16T17:02:31.553Z,9.32
2023-03-16T17:03:31.625Z,9.56
2023-03-16T17:04:31.765Z,9.54
2023-03-16T17:05:31.880Z,9.56
2023-03-16T17:06:31.838Z,9.60
2023-03-16T17:07:31.900Z,9.42
2023-03-16T17:08:31.954Z,9.38
2023-03-16T17:09:32.020Z,9.29
2023-03-16T17:10:32.089Z,9.41
2023-03-16T17:11:32.157Z,9.42
2023-03-16T17:12:32.221Z,9.15
2023-03-16T17:13:32.319Z,9.24
2023-03-16T17:14:32.374Z,9.33
2023-03-16T17:15:32.737Z,9.30
2023-03-16T17:16:32.543Z,9.03
2023-03-16T17:17:32.606Z,9.20
2023-03-16T17:18:32.661Z,9.01
2023-03-16T17:19:32.773Z,9.13
2023-03-16T17:20:32.818Z,8.95
2023-03-16T17:21:32.893Z,9.01
2023-03-16T17:22:32.955Z,9.01
2023-03-16T17:23:33.029Z,9.15
2023-03-16T17:24:33.095Z,9.06
2023-03-16T17:25:33.176Z,8.96
2023-03-16T17:26:33.259Z,8.84
2023-03-16T17:27:33.354Z,8.97
2023-03-16T17:29:33.517Z,8.98
2023-03-16T18:44:40.650Z,7.02
2023-03-16T18:45:40.769Z,7.03
2023-03-16T18:46:40.938Z,6.97
2023-03-16T18:47:41.003Z,6.94
2023-03-16T18:48:41.094Z,6.78
2023-03-16T18:49:41.193Z,6.81
2023-03-16T18:50:41.303Z,6.86
2023-03-16T18:51:41.398Z,6.83
2023-03-16T18:52:41.507Z,6.82
2023-03-16T18:53:41.621Z,6.89
2023-03-16T18:54:41.730Z,6.83
2023-03-16T18:55:41.841Z,6.71